sensor_id;sensor_type;location;lat;lon;timestamp;P1;durP1;ratioP1;P2;durP2;ratioP2
15557;SDS011;7880;50.110;9.372;2024-03-23T00:55:25;40.51538461538461;;;18.66923076923077;;
15557;SDS011;7880;50.110;9.372;2024-03-23T01:00:27;17.73076923076923;;;10.030769230769229;;
15557;SDS011;7880;50.110;9.372;2024-03-23T01:05:37;25.976923076923068;;;13.084615384615383;;
15557;SDS011;7880;50.110;9.372;2024-03-23T01:10:34;24.03846153846153;;;11.099999999999996;;
15557;SDS011;7880;50.110;9.372;2024-03-23T01:15:40;19.984615384615385;;;10.56153846153846;;
15557;SDS011;7880;50.110;9.372;2024-03-23T01:20:45;15.815384615384618;;;9.030769230769229;;
15557;SDS011;7880;50.110;9.372;2024-03-23T01:25:44;15.015384615384615;;;8.830769230769231;;
15557;SDS011;7880;50.110;9.372;2024-03-23T01:30:47;17.507692307692313;;;9.599999999999998;;
15557;SDS011;7880;50.110;9.372;2024-03-23T01:35:50;14.715384615384616;;;8.561538461538461;;
15557;SDS011;7880;50.110;9.372;2024-03-23T01:40:56;16.115384615384617;;;7.961538461538459;;
15557;SDS011;7880;50.110;9.372;2024-03-23T01:46:01;17.03076923076923;;;8.63076923076923;;
15557;SDS011;7880;50.110;9.372;2024-03-23T01:51:02;15.13846153846154;;;8.030769230769229;;
15557;SDS011;7880;50.110;9.372;2024-03-23T01:56:05;10.069230769230769;;;6.599999999999999;;
15557;SDS011;7880;50.110;9.372;2024-03-23T02:01:14;11.723076923076919;;;6.738461538461538;;
15557;SDS011;7880;50.110;9.372;2024-03-23T02:05:14;12.47692307692308;;;8.47692307692308;;
15557;SDS011;7880;50.110;9.372;2024-03-23T02:10:23;9.530769230769229;;;6.230769230769231;;
15557;SDS011;7880;50.110;9.372;2024-03-23T02:15:19;14.27692307692308;;;6.592307692307691;;
15557;SDS011;7880;50.110;9.372;2024-03-23T02:20:21;12.39230769230769;;;6.692307692307694;;
15557;SDS011;7880;50.110;9.372;2024-03-23T02:25:23;11.569230769230767;;;7.0;;
15557;SDS011;7880;50.110;9.372;2024-03-23T02:30:27;13.169230769230769;;;8.061538461538463;;
15557;SDS011;7880;50.110;9.372;2024-03-23T02:35:32;10.592307692307694;;;7.530769230769229;;
15557;SDS011;7880;50.110;9.372;2024-03-23T02:40:38;16.23846153846154;;;8.23076923076923;;
15557;SDS011;7880;50.110;9.372;2024-03-23T02:45:35;16.876923076923074;;;9.5;;
15557;SDS011;7880;50.110;9.372;2024-03-23T02:50:40;12.738461538461536;;;8.200000000000001;;
15557;SDS011;7880;50.110;9.372;2024-03-23T02:55:40;14.86153846153846;;;7.661538461538461;;
15557;SDS011;7880;50.110;9.372;2024-03-23T03:00:43;12.82307692307692;;;7.923076923076922;;
15557;SDS011;7880;50.110;9.372;2024-03-23T03:05:44;11.56153846153846;;;7.330769230769231;;
15557;SDS011;7880;50.110;9.372;2024-03-23T03:10:47;12.984615384615383;;;8.200000000000001;;
15557;SDS011;7880;50.110;9.372;2024-03-23T03:15:51;14.300000000000002;;;8.900000000000002;;
15557;SDS011;7880;50.110;9.372;2024-03-23T03:20:55;16.092307692307696;;;9.761538461538464;;
15557;SDS011;7880;50.110;9.372;2024-03-23T03:25:58;13.599999999999996;;;8.861538461538462;;
15557;SDS011;7880;50.110;9.372;2024-03-23T03:31:02;15.530769230769229;;;10.200000000000001;;
15557;SDS011;7880;50.110;9.372;2024-03-23T03:36:03;17.03846153846154;;;9.33076923076923;;
15557;SDS011;7880;50.110;9.372;2024-03-23T03:41:08;16.35384615384615;;;10.692307692307692;;
15557;SDS011;7880;50.110;9.372;2024-03-23T03:46:11;23.207692307692312;;;14.099999999999996;;
15557;SDS011;7880;50.110;9.372;2024-03-23T03:51:15;29.123076923076916;;;16.25384615384615;;
15557;SDS011;7880;50.110;9.372;2024-03-23T03:56:22;26.838461538461537;;;17.0;;
15557;SDS011;7880;50.110;9.372;2024-03-23T04:01:25;25.892307692307686;;;17.03076923076923;;
15557;SDS011;7880;50.110;9.372;2024-03-23T04:06:25;26.976923076923086;;;16.36923076923077;;
15557;SDS011;7880;50.110;9.372;2024-03-23T04:11:31;27.55384615384615;;;16.661538461538463;;
15557;SDS011;7880;50.110;9.372;2024-03-23T04:16:42;25.27692307692308;;;15.800000000000002;;
15557;SDS011;7880;50.110;9.372;2024-03-23T04:21:37;22.73076923076923;;;16.269230769230766;;
15557;SDS011;7880;50.110;9.372;2024-03-23T04:26:42;26.684615384615384;;;16.669230769230765;;
15557;SDS011;7880;50.110;9.372;2024-03-23T04:31:44;27.999999999999993;;;16.599999999999998;;
15557;SDS011;7880;50.110;9.372;2024-03-23T04:36:48;23.68461538461539;;;15.623076923076924;;
15557;SDS011;7880;50.110;9.372;2024-03-23T04:41:52;25.638461538461534;;;16.0;;
15557;SDS011;7880;50.110;9.372;2024-03-23T04:46:55;19.438461538461542;;;14.400000000000004;;
15557;SDS011;7880;50.110;9.372;2024-03-23T04:52:07;24.03846153846153;;;15.261538461538464;;
15557;SDS011;7880;50.110;9.372;2024-03-23T04:57:01;29.415384615384603;;;16.630769230769225;;
15557;SDS011;7880;50.110;9.372;2024-03-23T05:02:08;25.669230769230772;;;15.630769230769225;;
15557;SDS011;7880;50.110;9.372;2024-03-23T05:07:09;25.22307692307692;;;15.5;;
15557;SDS011;7880;50.110;9.372;2024-03-23T05:12:10;20.430769230769233;;;13.261538461538464;;
15557;SDS011;7880;50.110;9.372;2024-03-23T05:17:12;22.97692307692307;;;14.030769230769229;;
15557;SDS011;7880;50.110;9.372;2024-03-23T05:22:17;25.692307692307697;;;16.476923076923075;;
15557;SDS011;7880;50.110;9.372;2024-03-23T05:27:32;35.338461538461544;;;18.653846153846153;;
15557;SDS011;7880;50.110;9.372;2024-03-23T05:32:29;27.830769230769228;;;17.93076923076923;;
15557;SDS011;7880;50.110;9.372;2024-03-23T05:37:34;32.88461538461539;;;17.892307692307693;;
15557;SDS011;7880;50.110;9.372;2024-03-23T05:42:34;29.73076923076923;;;18.26923076923077;;
15557;SDS011;7880;50.110;9.372;2024-03-23T05:47:36;22.74615384615385;;;14.023076923076928;;
15557;SDS011;7880;50.110;9.372;2024-03-23T05:52:40;17.292307692307695;;;10.030769230769229;;
15557;SDS011;7880;50.110;9.372;2024-03-23T05:57:43;17.992307692307694;;;9.299999999999999;;
15557;SDS011;7880;50.110;9.372;2024-03-23T06:02:48;16.96153846153846;;;9.161538461538463;;
15557;SDS011;7880;50.110;9.372;2024-03-23T06:07:50;19.67692307692308;;;10.030769230769229;;
15557;SDS011;7880;50.110;9.372;2024-03-23T06:13:03;14.661538461538463;;;7.061538461538462;;
15557;SDS011;7880;50.110;9.372;2024-03-23T06:18:00;9.030769230769229;;;4.799999999999999;;
15557;SDS011;7880;50.110;9.372;2024-03-23T06:23:04;3.3307692307692305;;;2.330769230769231;;
15557;SDS011;7880;50.110;9.372;2024-03-23T06:28:27;3.2;;;1.8999999999999997;;
15557;SDS011;7880;50.110;9.372;2024-03-23T06:33:14;2.269230769230769;;;1.0999999999999999;;
15557;SDS011;7880;50.110;9.372;2024-03-23T06:38:23;3.969230769230769;;;1.8000000000000005;;
15557;SDS011;7880;50.110;9.372;2024-03-23T06:43:26;3.2692307692307705;;;1.4;;
15557;SDS011;7880;50.110;9.372;2024-03-23T06:48:24;3.169230769230769;;;1.6;;
15557;SDS011;7880;50.110;9.372;2024-03-23T06:53:28;1.6;;;1.0;;
15557;SDS011;7880;50.110;9.372;2024-03-23T06:58:33;0.5;;;0.5;;
15557;SDS011;7880;50.110;9.372;2024-03-23T07:03:37;1.169230769230769;;;0.9000000000000002;;
15557;SDS011;7880;50.110;9.372;2024-03-23T07:07:37;3.06923076923077;;;1.0999999999999999;;
15557;SDS011;7880;50.110;9.372;2024-03-23T07:12:38;2.569230769230769;;;1.0999999999999999;;
15557;SDS011;7880;50.110;9.372;2024-03-23T07:17:46;1.3615384615384616;;;1.1307692307692305;;
15557;SDS011;7880;50.110;9.372;2024-03-23T07:22:47;0.5692307692307692;;;0.5;;
15557;SDS011;7880;50.110;9.372;2024-03-23T07:27:56;0.5999999999999999;;;0.4;;
15557;SDS011;7880;50.110;9.372;2024-03-23T07:32:54;0.7;;;0.4;;
15557;SDS011;7880;50.110;9.372;2024-03-23T07:38:00;0.36923076923076914;;;0.29999999999999993;;
15557;SDS011;7880;50.110;9.372;2024-03-23T07:42:58;0.5999999999999999;;;0.5999999999999999;;
15557;SDS011;7880;50.110;9.372;2024-03-23T07:48:03;0.5307692307692307;;;0.43076923076923074;;
15557;SDS011;7880;50.110;9.372;2024-03-23T07:53:06;0.33076923076923076;;;0.33076923076923076;;
15557;SDS011;7880;50.110;9.372;2024-03-23T07:58:08;1.0923076923076924;;;0.5307692307692307;;
15557;SDS011;7880;50.110;9.372;2024-03-23T08:03:12;2.7307692307692313;;;1.0999999999999999;;
15557;SDS011;7880;50.110;9.372;2024-03-23T08:08:14;2.969230769230769;;;0.9000000000000002;;
15557;SDS011;7880;50.110;9.372;2024-03-23T08:13:19;1.469230769230769;;;0.9000000000000002;;
15557;SDS011;7880;50.110;9.372;2024-03-23T08:18:21;1.9307692307692308;;;0.9000000000000002;;
15557;SDS011;7880;50.110;9.372;2024-03-23T08:23:26;1.0615384615384613;;;0.8;;
15557;SDS011;7880;50.110;9.372;2024-03-23T08:28:28;1.6307692307692305;;;1.0307692307692307;;
15557;SDS011;7880;50.110;9.372;2024-03-23T08:33:31;2.7692307692307705;;;1.8307692307692305;;
15557;SDS011;7880;50.110;9.372;2024-03-23T08:38:33;6.076923076923077;;;1.1307692307692305;;
15557;SDS011;7880;50.110;9.372;2024-03-23T08:43:38;2.176923076923077;;;1.0615384615384613;;
15557;SDS011;7880;50.110;9.372;2024-03-23T08:48:40;5.038461538461539;;;1.3000000000000003;;
15557;SDS011;7880;50.110;9.372;2024-03-23T08:53:43;6.330769230769231;;;2.0;;
15557;SDS011;7880;50.110;9.372;2024-03-23T08:58:46;6.276923076923077;;;1.8000000000000005;;
15557;SDS011;7880;50.110;9.372;2024-03-23T09:03:53;3.5538461538461528;;;1.6999999999999995;;
15557;SDS011;7880;50.110;9.372;2024-03-23T09:08:51;5.8307692307692305;;;2.6000000000000005;;
15557;SDS011;7880;50.110;9.372;2024-03-23T09:13:53;3.8538461538461544;;;2.1307692307692307;;
15557;SDS011;7880;50.110;9.372;2024-03-23T09:18:57;7.707692307692307;;;2.93076923076923;;
15557;SDS011;7880;50.110;9.372;2024-03-23T09:23:59;4.815384615384616;;;2.230769230769231;;
15557;SDS011;7880;50.110;9.372;2024-03-23T09:29:04;6.36923076923077;;;2.430769230769231;;
15557;SDS011;7880;50.110;9.372;2024-03-23T09:34:09;6.876923076923076;;;3.06923076923077;;
15557;SDS011;7880;50.110;9.372;2024-03-23T09:39:16;10.846153846153847;;;3.530769230769231;;
15557;SDS011;7880;50.110;9.372;2024-03-23T09:44:19;7.3461538461538485;;;3.5;;
15557;SDS011;7880;50.110;9.372;2024-03-23T09:49:32;9.815384615384618;;;4.73846153846154;;
15557;SDS011;7880;50.110;9.372;2024-03-23T09:54:33;12.015384615384617;;;4.299999999999999;;
15557;SDS011;7880;50.110;9.372;2024-03-23T09:59:32;9.223076923076924;;;4.292307692307692;;
15557;SDS011;7880;50.110;9.372;2024-03-23T10:04:36;7.469230769230771;;;3.7000000000000006;;
15557;SDS011;7880;50.110;9.372;2024-03-23T10:09:40;7.446153846153847;;;3.9230769230769242;;
15557;SDS011;7880;50.110;9.372;2024-03-23T10:14:42;6.63846153846154;;;3.399999999999999;;
15557;SDS011;7880;50.110;9.372;2024-03-23T10:19:46;10.730769230769235;;;3.899999999999999;;
15557;SDS011;7880;50.110;9.372;2024-03-23T10:24:50;7.561538461538465;;;2.899999999999999;;
15557;SDS011;7880;50.110;9.372;2024-03-23T10:29:54;10.446153846153845;;;3.0;;
15557;SDS011;7880;50.110;9.372;2024-03-23T10:35:04;7.576923076923077;;;3.1384615384615384;;
15557;SDS011;7880;50.110;9.372;2024-03-23T10:40:03;6.707692307692307;;;2.7;;
15557;SDS011;7880;50.110;9.372;2024-03-23T10:45:13;8.376923076923076;;;2.469230769230769;;
15557;SDS011;7880;50.110;9.372;2024-03-23T10:50:13;7.369230769230768;;;2.430769230769231;;
15557;SDS011;7880;50.110;9.372;2024-03-23T10:55:24;10.376923076923076;;;3.0;;
15557;SDS011;7880;50.110;9.372;2024-03-23T11:00:21;5.538461538461541;;;2.1000000000000005;;
15557;SDS011;7880;50.110;9.372;2024-03-23T11:05:29;14.753846153846151;;;2.469230769230769;;
15557;SDS011;7880;50.110;9.372;2024-03-23T11:10:36;6.907692307692309;;;3.2999999999999994;;
15557;SDS011;7880;50.110;9.372;2024-03-23T11:15:37;4.869230769230769;;;1.6999999999999995;;
15557;SDS011;7880;50.110;9.372;2024-03-23T11:20:39;8.376923076923076;;;2.3000000000000003;;
15557;SDS011;7880;50.110;9.372;2024-03-23T11:25:54;6.153846153846154;;;1.6999999999999995;;
15557;SDS011;7880;50.110;9.372;2024-03-23T11:30:49;7.276923076923077;;;2.0;;
15557;SDS011;7880;50.110;9.372;2024-03-23T11:35:54;6.707692307692308;;;1.8999999999999997;;
15557;SDS011;7880;50.110;9.372;2024-03-23T11:41:03;6.869230769230768;;;2.3000000000000003;;
15557;SDS011;7880;50.110;9.372;2024-03-23T11:46:04;4.876923076923077;;;1.5615384615384613;;
15557;SDS011;7880;50.110;9.372;2024-03-23T11:51:08;2.638461538461539;;;1.4;;
15557;SDS011;7880;50.110;9.372;2024-03-23T11:56:12;5.0076923076923086;;;1.2307692307692308;;
15557;SDS011;7880;50.110;9.372;2024-03-23T12:01:16;3.315384615384615;;;1.1307692307692305;;
15557;SDS011;7880;50.110;9.372;2024-03-23T12:06:19;4.638461538461538;;;1.469230769230769;;
15557;SDS011;7880;50.110;9.372;2024-03-23T12:10:03;4.438461538461538;;;2.238461538461538;;
15557;SDS011;7880;50.110;9.372;2024-03-23T12:15:06;5.06923076923077;;;1.6999999999999995;;
15557;SDS011;7880;50.110;9.372;2024-03-23T12:20:08;2.7692307692307705;;;1.5;;
15557;SDS011;7880;50.110;9.372;2024-03-23T12:25:10;2.761538461538461;;;1.0;;
15557;SDS011;7880;50.110;9.372;2024-03-23T12:30:15;11.72307692307692;;;1.8999999999999997;;
15557;SDS011;7880;50.110;9.372;2024-03-23T12:35:18;5.176923076923076;;;1.0;;
15557;SDS011;7880;50.110;9.372;2024-03-23T12:40:27;1.969230769230769;;;1.469230769230769;;
15557;SDS011;7880;50.110;9.372;2024-03-23T12:45:24;0.9000000000000002;;;0.7;;
15557;SDS011;7880;50.110;9.372;2024-03-23T12:50:34;2.1000000000000005;;;0.8;;
15557;SDS011;7880;50.110;9.372;2024-03-23T12:55:35;4.692307692307693;;;1.2461538461538457;;
15557;SDS011;7880;50.110;9.372;2024-03-23T13:00:38;3.7000000000000006;;;1.3692307692307695;;
15557;SDS011;7880;50.110;9.372;2024-03-23T13:05:42;5.807692307692306;;;0.8;;
15557;SDS011;7880;50.110;9.372;2024-03-23T13:10:47;1.4923076923076926;;;0.7;;
15557;SDS011;7880;50.110;9.372;2024-03-23T13:15:55;6.476923076923078;;;0.7692307692307689;;
15557;SDS011;7880;50.110;9.372;2024-03-23T13:20:58;3.2692307692307705;;;0.6307692307692307;;
15557;SDS011;7880;50.110;9.372;2024-03-23T13:26:03;3.738461538461539;;;0.8;;
15557;SDS011;7880;50.110;9.372;2024-03-23T13:31:08;4.4692307692307685;;;1.4230769230769231;;
15557;SDS011;7880;50.110;9.372;2024-03-23T13:36:12;6.076923076923077;;;1.1999999999999997;;
15557;SDS011;7880;50.110;9.372;2024-03-23T13:41:17;3.06923076923077;;;1.169230769230769;;
15557;SDS011;7880;50.110;9.372;2024-03-23T13:46:21;3.169230769230769;;;0.9000000000000002;;
15557;SDS011;7880;50.110;9.372;2024-03-23T13:51:31;6.507692307692308;;;2.3000000000000003;;
15557;SDS011;7880;50.110;9.372;2024-03-23T13:56:29;3.969230769230769;;;1.7692307692307692;;
15557;SDS011;7880;50.110;9.372;2024-03-23T14:01:38;5.969230769230771;;;1.5;;
15557;SDS011;7880;50.110;9.372;2024-03-23T14:06:41;3.6692307692307695;;;1.3000000000000003;;
15557;SDS011;7880;50.110;9.372;2024-03-23T14:11:37;1.1999999999999997;;;0.8;;
15557;SDS011;7880;50.110;9.372;2024-03-23T14:16:40;1.1999999999999997;;;1.0;;
15557;SDS011;7880;50.110;9.372;2024-03-23T14:21:43;2.1999999999999997;;;1.1307692307692305;;
15557;SDS011;7880;50.110;9.372;2024-03-23T14:26:43;1.9615384615384621;;;0.8;;
15557;SDS011;7880;50.110;9.372;2024-03-23T14:31:46;1.3692307692307695;;;0.9000000000000002;;
15557;SDS011;7880;50.110;9.372;2024-03-23T14:36:48;1.4;;;0.8;;
15557;SDS011;7880;50.110;9.372;2024-03-23T14:41:52;1.6999999999999995;;;1.3000000000000003;;
15557;SDS011;7880;50.110;9.372;2024-03-23T14:46:57;1.1615384615384614;;;1.0;;
15557;SDS011;7880;50.110;9.372;2024-03-23T14:51:58;4.1000000000000005;;;1.2307692307692308;;
15557;SDS011;7880;50.110;9.372;2024-03-23T14:57:01;3.3615384615384603;;;1.5384615384615388;;
15557;SDS011;7880;50.110;9.372;2024-03-23T15:02:24;3.038461538461539;;;1.3000000000000003;;
15557;SDS011;7880;50.110;9.372;2024-03-23T15:07:12;1.638461538461538;;;1.3000000000000003;;
15557;SDS011;7880;50.110;9.372;2024-03-23T15:12:11;2.9384615384615382;;;1.638461538461538;;
15557;SDS011;7880;50.110;9.372;2024-03-23T15:17:15;2.8615384615384616;;;1.6692307692307695;;
15557;SDS011;7880;50.110;9.372;2024-03-23T15:22:18;2.776923076923076;;;1.638461538461538;;
15557;SDS011;7880;50.110;9.372;2024-03-23T15:27:20;1.5230769230769234;;;1.3000000000000003;;
15557;SDS011;7880;50.110;9.372;2024-03-23T15:32:26;3.238461538461539;;;1.169230769230769;;
15557;SDS011;7880;50.110;9.372;2024-03-23T15:37:31;1.6692307692307695;;;1.1999999999999997;;
15557;SDS011;7880;50.110;9.372;2024-03-23T15:42:30;8.176923076923078;;;4.369230769230769;;
15557;SDS011;7880;50.110;9.372;2024-03-23T15:47:35;4.761538461538462;;;1.6692307692307695;;
15557;SDS011;7880;50.110;9.372;2024-03-23T15:52:39;5.838461538461538;;;1.8000000000000005;;
15557;SDS011;7880;50.110;9.372;2024-03-23T15:57:41;2.899999999999999;;;1.8999999999999997;;
15557;SDS011;7880;50.110;9.372;2024-03-23T16:02:48;2.838461538461538;;;1.6692307692307695;;
15557;SDS011;7880;50.110;9.372;2024-03-23T16:07:48;5.269230769230769;;;2.7;;
15557;SDS011;7880;50.110;9.372;2024-03-23T16:12:52;4.007692307692308;;;1.8692307692307695;;
15557;SDS011;7880;50.110;9.372;2024-03-23T16:18:06;2.3000000000000003;;;1.4;;
15557;SDS011;7880;50.110;9.372;2024-03-23T16:23:07;2.169230769230769;;;1.5;;
15557;SDS011;7880;50.110;9.372;2024-03-23T16:28:02;1.5;;;1.4;;
15557;SDS011;7880;50.110;9.372;2024-03-23T16:33:04;4.561538461538462;;;3.130769230769232;;
15557;SDS011;7880;50.110;9.372;2024-03-23T16:38:06;2.8;;;1.6;;
15557;SDS011;7880;50.110;9.372;2024-03-23T16:43:10;4.638461538461538;;;1.8692307692307695;;
15557;SDS011;7880;50.110;9.372;2024-03-23T16:48:14;4.115384615384615;;;2.230769230769231;;
15557;SDS011;7880;50.110;9.372;2024-03-23T16:53:21;2.3999999999999995;;;1.4;;
15557;SDS011;7880;50.110;9.372;2024-03-23T16:58:22;1.9307692307692308;;;1.3000000000000003;;
15557;SDS011;7880;50.110;9.372;2024-03-23T17:03:22;3.438461538461538;;;1.1307692307692305;;
15557;SDS011;7880;50.110;9.372;2024-03-23T17:08:24;2.1000000000000005;;;1.0999999999999999;;
15557;SDS011;7880;50.110;9.372;2024-03-23T17:12:18;3.238461538461539;;;1.3000000000000003;;
15557;SDS011;7880;50.110;9.372;2024-03-23T17:17:21;1.5;;;1.330769230769231;;
15557;SDS011;7880;50.110;9.372;2024-03-23T17:22:27;6.5;;;3.8307692307692305;;
15557;SDS011;7880;50.110;9.372;2024-03-23T17:27:34;3.5384615384615383;;;2.0692307692307694;;
15557;SDS011;7880;50.110;9.372;2024-03-23T17:32:35;3.2;;;1.8000000000000005;;
15557;SDS011;7880;50.110;9.372;2024-03-23T17:37:38;4.323076923076924;;;2.0615384615384618;;
15557;SDS011;7880;50.110;9.372;2024-03-23T17:42:42;3.7692307692307705;;;2.1000000000000005;;
15557;SDS011;7880;50.110;9.372;2024-03-23T17:47:48;4.86153846153846;;;2.1999999999999997;;
15557;SDS011;7880;50.110;9.372;2024-03-23T17:52:51;3.83076923076923;;;2.1000000000000005;;
15557;SDS011;7880;50.110;9.372;2024-03-23T17:57:59;4.161538461538461;;;2.6000000000000005;;
15557;SDS011;7880;50.110;9.372;2024-03-23T18:02:57;7.63846153846154;;;2.899999999999999;;
15557;SDS011;7880;50.110;9.372;2024-03-23T18:07:59;3.2538461538461543;;;2.0769230769230766;;
15557;SDS011;7880;50.110;9.372;2024-03-23T18:13:02;4.176923076923076;;;2.0;;
15557;SDS011;7880;50.110;9.372;2024-03-23T18:18:09;1.6999999999999995;;;1.0;;
15557;SDS011;7880;50.110;9.372;2024-03-23T18:23:09;2.3615384615384616;;;1.4;;
15557;SDS011;7880;50.110;9.372;2024-03-23T18:28:11;5.223076923076922;;;1.0;;
15557;SDS011;7880;50.110;9.372;2024-03-23T18:33:17;8.676923076923076;;;4.715384615384616;;
15557;SDS011;7880;50.110;9.372;2024-03-23T18:38:16;2.8;;;1.8999999999999997;;
15557;SDS011;7880;50.110;9.372;2024-03-23T18:43:22;9.492307692307692;;;5.776923076923079;;
15557;SDS011;7880;50.110;9.372;2024-03-23T18:48:22;3.523076923076923;;;0.9615384615384617;;
15557;SDS011;7880;50.110;9.372;2024-03-23T18:53:31;3.7692307692307705;;;1.5;;
15557;SDS011;7880;50.110;9.372;2024-03-23T18:58:37;6.992307692307691;;;3.1384615384615393;;
15557;SDS011;7880;50.110;9.372;2024-03-23T19:03:34;5.238461538461538;;;1.8999999999999997;;
15557;SDS011;7880;50.110;9.372;2024-03-23T19:08:35;1.5384615384615388;;;1.0999999999999999;;
15557;SDS011;7880;50.110;9.372;2024-03-23T19:13:40;2.461538461538461;;;0.9000000000000002;;
15557;SDS011;7880;50.110;9.372;2024-03-23T19:18:45;3.7615384615384633;;;2.0;;
15557;SDS011;7880;50.110;9.372;2024-03-23T19:23:48;2.7538461538461543;;;1.9384615384615387;;
15557;SDS011;7880;50.110;9.372;2024-03-23T19:28:51;2.423076923076923;;;1.361538461538462;;
15557;SDS011;7880;50.110;9.372;2024-03-23T19:33:56;2.5615384615384618;;;2.0;;
15557;SDS011;7880;50.110;9.372;2024-03-23T19:38:57;3.338461538461539;;;1.1999999999999997;;
15557;SDS011;7880;50.110;9.372;2024-03-23T19:44:00;1.5615384615384613;;;1.0999999999999999;;
15557;SDS011;7880;50.110;9.372;2024-03-23T19:49:08;2.3999999999999995;;;1.1999999999999997;;
15557;SDS011;7880;50.110;9.372;2024-03-23T19:54:08;1.961538461538461;;;1.2615384615384615;;
15557;SDS011;7880;50.110;9.372;2024-03-23T19:59:11;2.1999999999999997;;;1.0;;
15557;SDS011;7880;50.110;9.372;2024-03-23T20:04:15;3.9384615384615382;;;1.3384615384615384;;
15557;SDS011;7880;50.110;9.372;2024-03-23T20:09:19;4.553846153846153;;;2.8;;
15557;SDS011;7880;50.110;9.372;2024-03-23T20:14:24;2.2615384615384615;;;1.5615384615384613;;
15557;SDS011;7880;50.110;9.372;2024-03-23T20:19:28;5.861538461538459;;;1.961538461538461;;
15557;SDS011;7880;50.110;9.372;2024-03-23T20:24:33;2.7615384615384624;;;1.8384615384615381;;
15557;SDS011;7880;50.110;9.372;2024-03-23T20:29:36;2.9384615384615382;;;2.3999999999999995;;
15557;SDS011;7880;50.110;9.372;2024-03-23T20:34:39;1.6999999999999995;;;1.5;;
15557;SDS011;7880;50.110;9.372;2024-03-23T20:39:43;3.2615384615384633;;;1.5384615384615388;;
15557;SDS011;7880;50.110;9.372;2024-03-23T20:44:48;1.8000000000000005;;;1.4;;
15557;SDS011;7880;50.110;9.372;2024-03-23T20:49:46;4.092307692307693;;;2.0;;
15557;SDS011;7880;50.110;9.372;2024-03-23T20:54:49;7.584615384615388;;;1.6999999999999995;;
15557;SDS011;7880;50.110;9.372;2024-03-23T20:59:52;4.1000000000000005;;;2.3000000000000003;;
15557;SDS011;7880;50.110;9.372;2024-03-23T21:04:57;4.276923076923078;;;2.0769230769230766;;
15557;SDS011;7880;50.110;9.372;2024-03-23T21:10:00;4.723076923076923;;;1.8384615384615381;;
15557;SDS011;7880;50.110;9.372;2024-03-23T21:15:03;3.530769230769231;;;2.1000000000000005;;
15557;SDS011;7880;50.110;9.372;2024-03-23T21:20:06;4.476923076923077;;;2.038461538461539;;
15557;SDS011;7880;50.110;9.372;2024-03-23T21:25:09;4.323076923076924;;;2.0;;
15557;SDS011;7880;50.110;9.372;2024-03-23T21:30:12;2.961538461538461;;;2.1999999999999997;;
15557;SDS011;7880;50.110;9.372;2024-03-23T21:35:34;4.276923076923077;;;2.1384615384615384;;
15557;SDS011;7880;50.110;9.372;2024-03-23T21:40:18;2.823076923076923;;;1.8999999999999997;;
15557;SDS011;7880;50.110;9.372;2024-03-23T21:45:22;3.423076923076922;;;1.8999999999999997;;
15557;SDS011;7880;50.110;9.372;2024-03-23T21:50:27;1.7615384615384615;;;1.6615384615384619;;
15557;SDS011;7880;50.110;9.372;2024-03-23T21:55:36;1.8999999999999997;;;1.5384615384615388;;
15557;SDS011;7880;50.110;9.372;2024-03-23T22:00:36;7.576923076923077;;;2.469230769230769;;
15557;SDS011;7880;50.110;9.372;2024-03-23T22:05:34;4.276923076923077;;;2.838461538461538;;
15557;SDS011;7880;50.110;9.372;2024-03-23T22:10:35;3.2999999999999994;;;2.8;;
15557;SDS011;7880;50.110;9.372;2024-03-23T22:14:32;5.6;;;4.16923076923077;;
15557;SDS011;7880;50.110;9.372;2024-03-23T22:19:38;5.361538461538459;;;3.5;;
15557;SDS011;7880;50.110;9.372;2024-03-23T22:24:48;6.7769230769230795;;;3.6769230769230763;;
15557;SDS011;7880;50.110;9.372;2024-03-23T22:29:41;6.484615384615385;;;3.7615384615384633;;
15557;SDS011;7880;50.110;9.372;2024-03-23T22:34:45;4.961538461538462;;;3.8615384615384603;;
15557;SDS011;7880;50.110;9.372;2024-03-23T22:39:50;7.084615384615388;;;4.761538461538462;;
15557;SDS011;7880;50.110;9.372;2024-03-23T22:44:53;4.961538461538462;;;3.661538461538462;;
15557;SDS011;7880;50.110;9.372;2024-03-23T22:49:57;5.1000000000000005;;;4.3999999999999995;;
15557;SDS011;7880;50.110;9.372;2024-03-23T22:55:00;9.984615384615383;;;5.361538461538459;;
15557;SDS011;7880;50.110;9.372;2024-03-23T23:00:08;6.969230769230771;;;4.6692307692307695;;
15557;SDS011;7880;50.110;9.372;2024-03-23T23:05:10;11.96153846153846;;;4.738461538461538;;
15557;SDS011;7880;50.110;9.372;2024-03-23T23:10:10;5.246153846153845;;;4.0;;
15557;SDS011;7880;50.110;9.372;2024-03-23T23:15:10;6.5384615384615365;;;4.576923076923078;;
15557;SDS011;7880;50.110;9.372;2024-03-23T23:20:16;7.1615384615384645;;;4.115384615384614;;
15557;SDS011;7880;50.110;9.372;2024-03-23T23:25:17;9.076923076923077;;;4.576923076923078;;
15557;SDS011;7880;50.110;9.372;2024-03-23T23:30:22;7.9769230769230735;;;4.661538461538462;;